N6214G KTEB-KPBI
Flight info
| Callsign | N6214G |
|---|---|
| Flight time | 2h 16m |
| Altitude | 43000 |
| Route | ELVAE COL WHITE Q409 CRPLR PAACK Q97 KENLL CPTAN3 |
| Aircraft | C750/M-SBDE3FGHRWXY/S |
Departure
| Time | 2026-05-05 03:58 |
|---|---|
| Airport | Teterboro Airport (KTEB) |
Arrival
| Time | 2026-05-05 06:14 |
|---|---|
| Airport | Palm Beach International Airport (KPBI) |
| Time | Latitude | Longitude | Altitude | Speed | Heading |
|---|---|---|---|---|---|
| 2026-05-05 03:13 | 40.85516 | -74.06234 | 12 ft | 0 kts | 309° |
| 2026-05-05 03:19 | 40.85516 | -74.06233 | 12 ft | 0 kts | 309° |
| 2026-05-05 03:27 | 40.85515 | -74.06233 | 12 ft | 0 kts | 309° |
| 2026-05-05 03:47 | 40.85520 | -74.06240 | 12 ft | 3 kts | 309° |
| 2026-05-05 03:48 | 40.85543 | -74.06256 | 13 ft | 5 kts | 2° |
| 2026-05-05 03:48 | 40.85571 | -74.06232 | 13 ft | 4 kts | 37° |
| 2026-05-05 03:48 | 40.85590 | -74.06207 | 11 ft | 3 kts | 65° |
| 2026-05-05 03:48 | 40.85591 | -74.06177 | 11 ft | 3 kts | 111° |
| 2026-05-05 03:49 | 40.85579 | -74.06156 | 11 ft | 2 kts | 128° |
| 2026-05-05 03:49 | 40.85572 | -74.06145 | 11 ft | 0 kts | 128° |
| 2026-05-05 03:49 | 40.85570 | -74.06140 | 11 ft | 2 kts | 124° |
| 2026-05-05 03:49 | 40.85557 | -74.06115 | 12 ft | 5 kts | 126° |
| 2026-05-05 03:50 | 40.85555 | -74.06072 | 13 ft | 6 kts | 56° |
| 2026-05-05 03:50 | 40.85601 | -74.06055 | 14 ft | 9 kts | 3° |
| 2026-05-05 03:50 | 40.85684 | -74.06049 | 12 ft | 13 kts | 3° |
| 2026-05-05 03:50 | 40.85770 | -74.06037 | 11 ft | 10 kts | 28° |
| 2026-05-05 03:51 | 40.85773 | -74.06034 | 11 ft | 0 kts | 43° |
| 2026-05-05 03:52 | 40.85776 | -74.06030 | 11 ft | 2 kts | 45° |
| 2026-05-05 03:52 | 40.85781 | -74.06019 | 11 ft | 0 kts | 63° |
| 2026-05-05 03:56 | 40.85783 | -74.06011 | 11 ft | 3 kts | 73° |
| 2026-05-05 03:56 | 40.85783 | -74.05963 | 12 ft | 7 kts | 92° |
| 2026-05-05 03:57 | 40.85780 | -74.05910 | 13 ft | 2 kts | 95° |
| 2026-05-05 03:57 | 40.85759 | -74.05897 | 14 ft | 8 kts | 180° |
| 2026-05-05 03:57 | 40.85463 | -74.05920 | 13 ft | 94 kts | 184° |
| 2026-05-05 03:57 | 40.84567 | -74.05991 | 139 ft | 144 kts | 184° |
| 2026-05-05 03:58 | 40.83520 | -74.06084 | 636 ft | 159 kts | 183° |
| 2026-05-05 03:58 | 40.82368 | -74.06261 | 1172 ft | 171 kts | 199° |
| 2026-05-05 03:58 | 40.81496 | -74.07338 | 1786 ft | 189 kts | 241° |
| 2026-05-05 03:58 | 40.81458 | -74.09238 | 1978 ft | 228 kts | 274° |
| 2026-05-05 03:59 | 40.81880 | -74.11301 | 2033 ft | 243 kts | 276° |
| 2026-05-05 03:59 | 40.82149 | -74.13624 | 2030 ft | 269 kts | 267° |
| 2026-05-05 03:59 | 40.82099 | -74.16028 | 2018 ft | 253 kts | 259° |
| 2026-05-05 03:59 | 40.81940 | -74.18282 | 2012 ft | 241 kts | 260° |
| 2026-05-05 04:00 | 40.81771 | -74.20425 | 1943 ft | 227 kts | 249° |
| 2026-05-05 04:00 | 40.80930 | -74.22070 | 1871 ft | 212 kts | 223° |
| 2026-05-05 04:00 | 40.79784 | -74.23211 | 1885 ft | 203 kts | 208° |
| 2026-05-05 04:00 | 40.78468 | -74.23817 | 1881 ft | 200 kts | 193° |
| 2026-05-05 04:01 | 40.76984 | -74.24021 | 2049 ft | 230 kts | 188° |
| 2026-05-05 04:01 | 40.75397 | -74.24244 | 3110 ft | 229 kts | 190° |
| 2026-05-05 04:01 | 40.73784 | -74.24517 | 4006 ft | 238 kts | 191° |
| 2026-05-05 04:01 | 40.72120 | -74.24799 | 4957 ft | 244 kts | 192° |
| 2026-05-05 04:02 | 40.70411 | -74.25075 | 5844 ft | 251 kts | 192° |
| 2026-05-05 04:02 | 40.68652 | -74.25359 | 6641 ft | 259 kts | 192° |
| 2026-05-05 04:02 | 40.66841 | -74.25652 | 7521 ft | 265 kts | 192° |
| 2026-05-05 04:02 | 40.64987 | -74.25954 | 8459 ft | 272 kts | 192° |
| 2026-05-05 04:03 | 40.63098 | -74.26262 | 9406 ft | 277 kts | 192° |
| 2026-05-05 04:03 | 40.61157 | -74.26578 | 10187 ft | 285 kts | 192° |
| 2026-05-05 04:03 | 40.59113 | -74.26914 | 10475 ft | 309 kts | 192° |
| 2026-05-05 04:03 | 40.56957 | -74.27262 | 11138 ft | 313 kts | 191° |
| 2026-05-05 04:04 | 40.54764 | -74.27440 | 11831 ft | 323 kts | 179° |
| 2026-05-05 04:04 | 40.52570 | -74.26626 | 12562 ft | 331 kts | 163° |
| 2026-05-05 04:04 | 40.50411 | -74.25531 | 13355 ft | 334 kts | 162° |
| 2026-05-05 04:04 | 40.48226 | -74.24435 | 14055 ft | 338 kts | 162° |
| 2026-05-05 04:05 | 40.46013 | -74.23341 | 14726 ft | 341 kts | 163° |
| 2026-05-05 04:05 | 40.43782 | -74.22235 | 15396 ft | 344 kts | 163° |
| 2026-05-05 04:05 | 40.41535 | -74.21117 | 16093 ft | 347 kts | 163° |
| 2026-05-05 04:05 | 40.39297 | -74.20004 | 16810 ft | 350 kts | 163° |
| 2026-05-05 04:06 | 40.36979 | -74.18856 | 17534 ft | 353 kts | 163° |
| 2026-05-05 04:06 | 40.34667 | -74.17709 | 18274 ft | 357 kts | 163° |
| 2026-05-05 04:06 | 40.32319 | -74.16637 | 18869 ft | 358 kts | 169° |
| 2026-05-05 04:06 | 40.29894 | -74.16452 | 19467 ft | 353 kts | 189° |
| 2026-05-05 04:07 | 40.27491 | -74.17052 | 20150 ft | 353 kts | 196° |
| 2026-05-05 04:07 | 40.25057 | -74.17808 | 20802 ft | 357 kts | 197° |
| 2026-05-05 04:07 | 40.22625 | -74.18557 | 21431 ft | 362 kts | 196° |
| 2026-05-05 04:07 | 40.20190 | -74.19280 | 22077 ft | 366 kts | 195° |
| 2026-05-05 04:08 | 40.17657 | -74.20032 | 22739 ft | 370 kts | 195° |
| 2026-05-05 04:08 | 40.15171 | -74.20784 | 23372 ft | 374 kts | 195° |
| 2026-05-05 04:08 | 40.12619 | -74.21554 | 23933 ft | 378 kts | 195° |
| 2026-05-05 04:08 | 40.10042 | -74.22324 | 24485 ft | 381 kts | 195° |
| 2026-05-05 04:09 | 40.07442 | -74.23101 | 25030 ft | 385 kts | 195° |
| 2026-05-05 04:09 | 40.04825 | -74.23886 | 25580 ft | 388 kts | 195° |
| 2026-05-05 04:09 | 40.02184 | -74.24701 | 26104 ft | 391 kts | 197° |
| 2026-05-05 04:09 | 39.99696 | -74.26132 | 26599 ft | 391 kts | 213° |
| 2026-05-05 04:10 | 39.97472 | -74.28163 | 27188 ft | 392 kts | 218° |
| 2026-05-05 04:10 | 39.95264 | -74.30291 | 27740 ft | 396 kts | 218° |
| 2026-05-05 04:10 | 39.93034 | -74.32428 | 28306 ft | 400 kts | 218° |
| 2026-05-05 04:10 | 39.90777 | -74.34568 | 28887 ft | 404 kts | 218° |
| 2026-05-05 04:11 | 39.88492 | -74.36735 | 29447 ft | 408 kts | 218° |
| 2026-05-05 04:11 | 39.86196 | -74.38922 | 30014 ft | 411 kts | 218° |
| 2026-05-05 04:11 | 39.84065 | -74.40951 | 30443 ft | 414 kts | 218° |
| 2026-05-05 04:11 | 39.82071 | -74.42874 | 30876 ft | 416 kts | 219° |
| 2026-05-05 04:12 | 39.79982 | -74.45487 | 31331 ft | 418 kts | 227° |
| 2026-05-05 04:12 | 39.77959 | -74.48211 | 31834 ft | 420 kts | 227° |
| 2026-05-05 04:12 | 39.75893 | -74.50923 | 32303 ft | 423 kts | 227° |
| 2026-05-05 04:12 | 39.73815 | -74.53655 | 32774 ft | 426 kts | 227° |
| 2026-05-05 04:13 | 39.71737 | -74.56423 | 33247 ft | 429 kts | 227° |
| 2026-05-05 04:13 | 39.69649 | -74.59201 | 33701 ft | 432 kts | 227° |
| 2026-05-05 04:13 | 39.67531 | -74.61995 | 34131 ft | 435 kts | 227° |
| 2026-05-05 04:13 | 39.65402 | -74.64798 | 34591 ft | 436 kts | 227° |
| 2026-05-05 04:14 | 39.63290 | -74.67586 | 35251 ft | 431 kts | 228° |
| 2026-05-05 04:14 | 39.61199 | -74.70348 | 35870 ft | 428 kts | 228° |
| 2026-05-05 04:14 | 39.59116 | -74.73093 | 36477 ft | 425 kts | 228° |
| 2026-05-05 04:14 | 39.57045 | -74.75817 | 37081 ft | 423 kts | 228° |
| 2026-05-05 04:15 | 39.54988 | -74.78521 | 37685 ft | 420 kts | 229° |
| 2026-05-05 04:15 | 39.52942 | -74.81210 | 38292 ft | 418 kts | 229° |
| 2026-05-05 04:15 | 39.50909 | -74.83879 | 38832 ft | 415 kts | 229° |
| 2026-05-05 04:15 | 39.48883 | -74.86537 | 39235 ft | 415 kts | 229° |
| 2026-05-05 04:16 | 39.46856 | -74.89194 | 39587 ft | 415 kts | 229° |
| 2026-05-05 04:16 | 39.44829 | -74.91847 | 39952 ft | 415 kts | 229° |
| 2026-05-05 04:16 | 39.42797 | -74.94505 | 40299 ft | 415 kts | 229° |
| 2026-05-05 04:16 | 39.40764 | -74.97162 | 40662 ft | 416 kts | 229° |
| 2026-05-05 04:17 | 39.38728 | -74.99821 | 41026 ft | 416 kts | 229° |
| 2026-05-05 04:17 | 39.36690 | -75.02479 | 41396 ft | 416 kts | 229° |
| 2026-05-05 04:17 | 39.34678 | -75.05101 | 41751 ft | 416 kts | 229° |
| 2026-05-05 04:17 | 39.32635 | -75.07762 | 42114 ft | 417 kts | 229° |
| 2026-05-05 04:18 | 39.30595 | -75.10417 | 42476 ft | 417 kts | 229° |
| 2026-05-05 04:18 | 39.28479 | -75.12982 | 42738 ft | 418 kts | 226° |
| 2026-05-05 04:18 | 39.26319 | -75.15493 | 42971 ft | 418 kts | 225° |
| 2026-05-05 04:18 | 39.24144 | -75.18027 | 42955 ft | 424 kts | 226° |
| 2026-05-05 04:19 | 39.19731 | -75.23208 | 42941 ft | 434 kts | 226° |
| 2026-05-05 04:19 | 39.15420 | -75.28229 | 42949 ft | 443 kts | 225° |
| 2026-05-05 04:20 | 39.10805 | -75.33611 | 42946 ft | 452 kts | 225° |
| 2026-05-05 04:20 | 39.06075 | -75.39051 | 42935 ft | 461 kts | 223° |
| 2026-05-05 04:21 | 39.00454 | -75.43247 | 42937 ft | 477 kts | 206° |
| 2026-05-05 04:21 | 38.93911 | -75.45211 | 42952 ft | 491 kts | 191° |
| 2026-05-05 04:22 | 38.87101 | -75.46137 | 42976 ft | 494 kts | 191° |
| 2026-05-05 04:22 | 38.80251 | -75.47094 | 42986 ft | 496 kts | 191° |
| 2026-05-05 04:23 | 38.73377 | -75.48032 | 42985 ft | 497 kts | 191° |
| 2026-05-05 04:23 | 38.66489 | -75.48977 | 42975 ft | 498 kts | 191° |
| 2026-05-05 04:24 | 38.59602 | -75.49906 | 42976 ft | 498 kts | 191° |
| 2026-05-05 04:25 | 38.49688 | -75.51252 | 42983 ft | 497 kts | 191° |
| 2026-05-05 04:25 | 38.42807 | -75.52182 | 42991 ft | 496 kts | 191° |
| 2026-05-05 04:26 | 38.36015 | -75.53488 | 42988 ft | 490 kts | 200° |
| 2026-05-05 04:26 | 38.29866 | -75.56932 | 42986 ft | 479 kts | 216° |
| 2026-05-05 04:27 | 38.25306 | -75.60895 | 42997 ft | 478 kts | 219° |
| 2026-05-05 04:27 | 38.19803 | -75.65664 | 42993 ft | 479 kts | 218° |
| 2026-05-05 04:28 | 38.14299 | -75.70459 | 42996 ft | 480 kts | 218° |
| 2026-05-05 04:28 | 38.08767 | -75.75251 | 42994 ft | 482 kts | 218° |
| 2026-05-05 04:29 | 38.03233 | -75.80045 | 43007 ft | 482 kts | 218° |
| 2026-05-05 04:29 | 37.97689 | -75.84835 | 42996 ft | 483 kts | 218° |
| 2026-05-05 04:30 | 37.92136 | -75.89625 | 43008 ft | 483 kts | 218° |
| 2026-05-05 04:30 | 37.86577 | -75.94410 | 42996 ft | 483 kts | 218° |
| 2026-05-05 04:31 | 37.81015 | -75.99190 | 42975 ft | 483 kts | 218° |
| 2026-05-05 04:31 | 37.75464 | -76.03951 | 42998 ft | 482 kts | 218° |
| 2026-05-05 04:32 | 37.69910 | -76.08706 | 42996 ft | 482 kts | 218° |
| 2026-05-05 04:32 | 37.64355 | -76.13453 | 42999 ft | 482 kts | 218° |
| 2026-05-05 04:33 | 37.58664 | -76.17952 | 43007 ft | 485 kts | 212° |
| 2026-05-05 04:33 | 37.52702 | -76.21896 | 43012 ft | 483 kts | 213° |
| 2026-05-05 04:34 | 37.46768 | -76.25865 | 43019 ft | 483 kts | 212° |
| 2026-05-05 04:34 | 37.40822 | -76.29797 | 43016 ft | 482 kts | 212° |
| 2026-05-05 04:35 | 37.34893 | -76.33736 | 43007 ft | 482 kts | 212° |
| 2026-05-05 04:35 | 37.28944 | -76.37666 | 43000 ft | 483 kts | 212° |
| 2026-05-05 04:36 | 37.23037 | -76.41569 | 43030 ft | 484 kts | 212° |
| 2026-05-05 04:36 | 37.17078 | -76.45496 | 43008 ft | 484 kts | 212° |
| 2026-05-05 04:37 | 37.11122 | -76.49415 | 43032 ft | 484 kts | 212° |
| 2026-05-05 04:37 | 37.05149 | -76.53337 | 43041 ft | 485 kts | 212° |
| 2026-05-05 04:38 | 36.99176 | -76.57253 | 43027 ft | 485 kts | 212° |
| 2026-05-05 04:38 | 36.93207 | -76.61159 | 43048 ft | 484 kts | 212° |
| 2026-05-05 04:39 | 36.87242 | -76.65056 | 43041 ft | 484 kts | 212° |
| 2026-05-05 04:39 | 36.81272 | -76.68949 | 43060 ft | 484 kts | 212° |
| 2026-05-05 04:40 | 36.75299 | -76.72837 | 43065 ft | 484 kts | 212° |
| 2026-05-05 04:40 | 36.69334 | -76.76713 | 43067 ft | 483 kts | 212° |
| 2026-05-05 04:41 | 36.63410 | -76.80556 | 43063 ft | 483 kts | 212° |
| 2026-05-05 04:41 | 36.57442 | -76.84420 | 43060 ft | 483 kts | 212° |
| 2026-05-05 04:42 | 36.51473 | -76.88279 | 43056 ft | 483 kts | 212° |
| 2026-05-05 04:42 | 36.45516 | -76.92122 | 43063 ft | 482 kts | 212° |
| 2026-05-05 04:43 | 36.39556 | -76.95962 | 43073 ft | 482 kts | 212° |
| 2026-05-05 04:43 | 36.33600 | -76.99791 | 43077 ft | 482 kts | 212° |
| 2026-05-05 04:44 | 36.27644 | -77.03615 | 43058 ft | 482 kts | 212° |
| 2026-05-05 04:44 | 36.21692 | -77.07429 | 43083 ft | 482 kts | 212° |
| 2026-05-05 04:45 | 36.15740 | -77.11236 | 43075 ft | 482 kts | 212° |
| 2026-05-05 04:45 | 36.09785 | -77.15039 | 43069 ft | 482 kts | 212° |
| 2026-05-05 04:46 | 36.03829 | -77.18836 | 43081 ft | 481 kts | 212° |
| 2026-05-05 04:46 | 35.97883 | -77.22620 | 43086 ft | 481 kts | 212° |
| 2026-05-05 04:47 | 35.92090 | -77.26579 | 43081 ft | 476 kts | 219° |
| 2026-05-05 04:47 | 35.86882 | -77.31582 | 43093 ft | 475 kts | 222° |
| 2026-05-05 04:48 | 35.81667 | -77.36589 | 43080 ft | 475 kts | 222° |
| 2026-05-05 04:48 | 35.76462 | -77.41618 | 43091 ft | 475 kts | 222° |
| 2026-05-05 04:49 | 35.71246 | -77.46625 | 43093 ft | 476 kts | 222° |
| 2026-05-05 04:49 | 35.66029 | -77.51638 | 43092 ft | 476 kts | 222° |
| 2026-05-05 04:50 | 35.60811 | -77.56636 | 43093 ft | 475 kts | 222° |
| 2026-05-05 04:50 | 35.55592 | -77.61632 | 43090 ft | 476 kts | 222° |
| 2026-05-05 04:51 | 35.50351 | -77.66637 | 43100 ft | 478 kts | 222° |
| 2026-05-05 04:51 | 35.45101 | -77.71643 | 43103 ft | 479 kts | 222° |
| 2026-05-05 04:52 | 35.39838 | -77.76651 | 43112 ft | 479 kts | 222° |
| 2026-05-05 04:52 | 35.34573 | -77.81654 | 43107 ft | 479 kts | 222° |
| 2026-05-05 04:53 | 35.29336 | -77.86623 | 43108 ft | 479 kts | 222° |
| 2026-05-05 04:53 | 35.24065 | -77.91614 | 43105 ft | 479 kts | 222° |
| 2026-05-05 04:54 | 35.18790 | -77.96601 | 43100 ft | 479 kts | 222° |
| 2026-05-05 04:54 | 35.13516 | -78.01579 | 43104 ft | 479 kts | 222° |
| 2026-05-05 04:55 | 35.08239 | -78.06552 | 43105 ft | 479 kts | 222° |
| 2026-05-05 04:55 | 35.02954 | -78.11523 | 43108 ft | 480 kts | 222° |
| 2026-05-05 04:56 | 34.97664 | -78.16491 | 43103 ft | 480 kts | 222° |
| 2026-05-05 04:56 | 34.92372 | -78.21452 | 43080 ft | 480 kts | 222° |
| 2026-05-05 04:57 | 34.87085 | -78.26400 | 43100 ft | 479 kts | 221° |
| 2026-05-05 04:57 | 34.81797 | -78.31341 | 43100 ft | 479 kts | 221° |
| 2026-05-05 04:58 | 34.76502 | -78.36281 | 43100 ft | 480 kts | 221° |
| 2026-05-05 04:58 | 34.71203 | -78.41216 | 43106 ft | 480 kts | 221° |
| 2026-05-05 04:59 | 34.65913 | -78.46134 | 43118 ft | 479 kts | 221° |
| 2026-05-05 04:59 | 34.60620 | -78.51047 | 43124 ft | 478 kts | 221° |
| 2026-05-05 05:00 | 34.55336 | -78.55944 | 43120 ft | 478 kts | 221° |
| 2026-05-05 05:00 | 34.50078 | -78.60809 | 43115 ft | 479 kts | 221° |
| 2026-05-05 05:01 | 34.44780 | -78.65702 | 43116 ft | 478 kts | 221° |
| 2026-05-05 05:01 | 34.39459 | -78.70544 | 43120 ft | 480 kts | 219° |
| 2026-05-05 05:02 | 34.33912 | -78.75152 | 43097 ft | 481 kts | 219° |
| 2026-05-05 05:02 | 34.28448 | -78.79723 | 43101 ft | 481 kts | 219° |
| 2026-05-05 05:03 | 34.22931 | -78.84311 | 43099 ft | 482 kts | 219° |
| 2026-05-05 05:03 | 34.17419 | -78.88895 | 43099 ft | 481 kts | 219° |
| 2026-05-05 05:04 | 34.11912 | -78.93477 | 43102 ft | 481 kts | 219° |
| 2026-05-05 05:04 | 34.06395 | -78.98055 | 43110 ft | 481 kts | 219° |
| 2026-05-05 05:05 | 34.00880 | -79.02627 | 43121 ft | 481 kts | 219° |
| 2026-05-05 05:05 | 33.95363 | -79.07191 | 43123 ft | 481 kts | 219° |
| 2026-05-05 05:06 | 33.89843 | -79.11753 | 43125 ft | 482 kts | 219° |
| 2026-05-05 05:06 | 33.84307 | -79.16319 | 43125 ft | 483 kts | 219° |
| 2026-05-05 05:07 | 33.78759 | -79.20888 | 43125 ft | 483 kts | 219° |
| 2026-05-05 05:07 | 33.73208 | -79.25451 | 43104 ft | 483 kts | 219° |
| 2026-05-05 05:08 | 33.67670 | -79.29998 | 43108 ft | 483 kts | 219° |
| 2026-05-05 05:08 | 33.62193 | -79.34647 | 43109 ft | 482 kts | 221° |
| 2026-05-05 05:09 | 33.56728 | -79.39309 | 43113 ft | 483 kts | 220° |
| 2026-05-05 05:09 | 33.51234 | -79.43946 | 43124 ft | 483 kts | 221° |
| 2026-05-05 05:10 | 33.45761 | -79.48595 | 43120 ft | 483 kts | 220° |
| 2026-05-05 05:10 | 33.40300 | -79.53198 | 43123 ft | 484 kts | 220° |
| 2026-05-05 05:11 | 33.34797 | -79.57849 | 43128 ft | 485 kts | 220° |
| 2026-05-05 05:11 | 33.29285 | -79.62488 | 43125 ft | 485 kts | 220° |
| 2026-05-05 05:12 | 33.23764 | -79.67135 | 43103 ft | 485 kts | 220° |
| 2026-05-05 05:12 | 33.18240 | -79.71773 | 43108 ft | 485 kts | 220° |
| 2026-05-05 05:13 | 33.12718 | -79.76403 | 43108 ft | 485 kts | 220° |
| 2026-05-05 05:13 | 33.07188 | -79.81033 | 43108 ft | 486 kts | 221° |
| 2026-05-05 05:14 | 33.01655 | -79.85658 | 43115 ft | 487 kts | 220° |
| 2026-05-05 05:14 | 32.96103 | -79.90291 | 43119 ft | 487 kts | 220° |
| 2026-05-05 05:15 | 32.90546 | -79.94922 | 43118 ft | 488 kts | 220° |
| 2026-05-05 05:15 | 32.85023 | -79.99517 | 43117 ft | 488 kts | 220° |
| 2026-05-05 05:16 | 32.79455 | -80.04142 | 43117 ft | 488 kts | 220° |
| 2026-05-05 05:16 | 32.73893 | -80.08755 | 43119 ft | 487 kts | 221° |
| 2026-05-05 05:17 | 32.68334 | -80.13359 | 43118 ft | 487 kts | 221° |
| 2026-05-05 05:17 | 32.62771 | -80.17958 | 43113 ft | 488 kts | 221° |
| 2026-05-05 05:18 | 32.57194 | -80.22563 | 43107 ft | 489 kts | 221° |
| 2026-05-05 05:18 | 32.52504 | -80.26416 | 43101 ft | 491 kts | 220° |
| 2026-05-05 05:19 | 32.46512 | -80.30320 | 43106 ft | 495 kts | 214° |
| 2026-05-05 05:19 | 32.40443 | -80.34194 | 43102 ft | 496 kts | 215° |
| 2026-05-05 05:20 | 32.34346 | -80.38029 | 43112 ft | 497 kts | 214° |
| 2026-05-05 05:20 | 32.28249 | -80.41886 | 43109 ft | 497 kts | 214° |
| 2026-05-05 05:21 | 32.22149 | -80.45724 | 43098 ft | 496 kts | 214° |
| 2026-05-05 05:21 | 32.16052 | -80.49562 | 43091 ft | 496 kts | 214° |
| 2026-05-05 05:22 | 32.09962 | -80.53386 | 43087 ft | 496 kts | 214° |
| 2026-05-05 05:22 | 32.03861 | -80.57214 | 43081 ft | 497 kts | 215° |
| 2026-05-05 05:23 | 31.97756 | -80.61036 | 43090 ft | 497 kts | 215° |
| 2026-05-05 05:23 | 31.91649 | -80.64856 | 43091 ft | 497 kts | 215° |
| 2026-05-05 05:24 | 31.85529 | -80.68676 | 43089 ft | 498 kts | 215° |
| 2026-05-05 05:24 | 31.79403 | -80.72495 | 43091 ft | 499 kts | 215° |
| 2026-05-05 05:25 | 31.73271 | -80.76311 | 43058 ft | 499 kts | 215° |
| 2026-05-05 05:25 | 31.67155 | -80.80112 | 43084 ft | 498 kts | 215° |
| 2026-05-05 05:26 | 31.61029 | -80.83914 | 43088 ft | 498 kts | 215° |
| 2026-05-05 05:26 | 31.54906 | -80.87708 | 43088 ft | 498 kts | 215° |
| 2026-05-05 05:27 | 31.48823 | -80.91472 | 43075 ft | 498 kts | 216° |
| 2026-05-05 05:27 | 31.39649 | -80.97137 | 43084 ft | 497 kts | 216° |
| 2026-05-05 05:28 | 31.33524 | -81.00913 | 43087 ft | 498 kts | 216° |
| 2026-05-05 05:28 | 31.27256 | -81.04448 | 43085 ft | 508 kts | 207° |
| 2026-05-05 05:29 | 31.20222 | -81.06179 | 43040 ft | 528 kts | 191° |
| 2026-05-05 05:29 | 31.12865 | -81.06360 | 43101 ft | 529 kts | 188° |
| 2026-05-05 05:30 | 31.05493 | -81.06524 | 43098 ft | 529 kts | 188° |
| 2026-05-05 05:30 | 30.98124 | -81.06669 | 43091 ft | 530 kts | 188° |
| 2026-05-05 05:31 | 30.90758 | -81.06825 | 43090 ft | 529 kts | 188° |
| 2026-05-05 05:31 | 30.83410 | -81.06974 | 43084 ft | 528 kts | 188° |
| 2026-05-05 05:32 | 30.76062 | -81.07126 | 43087 ft | 528 kts | 188° |
| 2026-05-05 05:32 | 30.68769 | -81.07275 | 43083 ft | 527 kts | 188° |
| 2026-05-05 05:33 | 30.61445 | -81.07464 | 43082 ft | 523 kts | 191° |
| 2026-05-05 05:33 | 30.54187 | -81.07920 | 43085 ft | 522 kts | 191° |
| 2026-05-05 05:34 | 30.46938 | -81.08345 | 43081 ft | 522 kts | 191° |
| 2026-05-05 05:34 | 30.39680 | -81.08788 | 43081 ft | 522 kts | 191° |
| 2026-05-05 05:35 | 30.32418 | -81.09220 | 43084 ft | 523 kts | 191° |
| 2026-05-05 05:35 | 30.25152 | -81.09658 | 43084 ft | 523 kts | 191° |
| 2026-05-05 05:36 | 30.17880 | -81.10092 | 43087 ft | 523 kts | 191° |
| 2026-05-05 05:36 | 30.10600 | -81.10528 | 43091 ft | 524 kts | 191° |
| 2026-05-05 05:37 | 30.03340 | -81.10960 | 43099 ft | 522 kts | 191° |
| 2026-05-05 05:37 | 29.96086 | -81.11394 | 43102 ft | 522 kts | 191° |
| 2026-05-05 05:38 | 29.88832 | -81.11825 | 43102 ft | 522 kts | 191° |
| 2026-05-05 05:38 | 29.81581 | -81.12244 | 43093 ft | 524 kts | 190° |
| 2026-05-05 05:39 | 29.74329 | -81.12277 | 43096 ft | 525 kts | 188° |
| 2026-05-05 05:39 | 29.67026 | -81.12319 | 43093 ft | 525 kts | 189° |
| 2026-05-05 05:40 | 29.59705 | -81.12243 | 43067 ft | 532 kts | 183° |
| 2026-05-05 05:40 | 29.56009 | -81.11583 | 43065 ft | 543 kts | 174° |
| 2026-05-05 05:40 | 29.52368 | -81.10324 | 43033 ft | 551 kts | 167° |
| 2026-05-05 05:41 | 29.45187 | -81.07239 | 43102 ft | 551 kts | 167° |
| 2026-05-05 05:41 | 29.37956 | -81.04318 | 43085 ft | 551 kts | 167° |
| 2026-05-05 05:42 | 29.30742 | -81.01293 | 43085 ft | 553 kts | 167° |
| 2026-05-05 05:42 | 29.23502 | -80.98330 | 43098 ft | 553 kts | 168° |
| 2026-05-05 05:43 | 29.16264 | -80.95338 | 43088 ft | 554 kts | 167° |
| 2026-05-05 05:43 | 29.09059 | -80.92377 | 43076 ft | 554 kts | 168° |
| 2026-05-05 05:44 | 29.01795 | -80.89395 | 43077 ft | 554 kts | 167° |
| 2026-05-05 05:44 | 28.94545 | -80.86418 | 43079 ft | 553 kts | 167° |
| 2026-05-05 05:45 | 28.87317 | -80.83466 | 43065 ft | 552 kts | 168° |
| 2026-05-05 05:45 | 28.83718 | -80.81991 | 42856 ft | 547 kts | 168° |
| 2026-05-05 05:45 | 28.80149 | -80.80529 | 42070 ft | 539 kts | 168° |
| 2026-05-05 05:46 | 28.76654 | -80.79101 | 41361 ft | 528 kts | 168° |
| 2026-05-05 05:46 | 28.73231 | -80.77708 | 40669 ft | 517 kts | 168° |
| 2026-05-05 05:46 | 28.69870 | -80.76341 | 39993 ft | 508 kts | 169° |
| 2026-05-05 05:46 | 28.66566 | -80.74995 | 39327 ft | 500 kts | 169° |
| 2026-05-05 05:47 | 28.63316 | -80.73671 | 38620 ft | 492 kts | 169° |
| 2026-05-05 05:47 | 28.60124 | -80.72373 | 37970 ft | 483 kts | 169° |
| 2026-05-05 05:47 | 28.56983 | -80.71097 | 37331 ft | 474 kts | 169° |
| 2026-05-05 05:47 | 28.53899 | -80.69847 | 36705 ft | 467 kts | 169° |
| 2026-05-05 05:48 | 28.50867 | -80.68617 | 36096 ft | 461 kts | 168° |
| 2026-05-05 05:48 | 28.47865 | -80.67400 | 35493 ft | 455 kts | 168° |
| 2026-05-05 05:48 | 28.44896 | -80.66197 | 34882 ft | 451 kts | 168° |
| 2026-05-05 05:48 | 28.41955 | -80.65007 | 34290 ft | 447 kts | 168° |
| 2026-05-05 05:49 | 28.39029 | -80.63822 | 33634 ft | 444 kts | 167° |
| 2026-05-05 05:49 | 28.36136 | -80.62650 | 33053 ft | 439 kts | 167° |
| 2026-05-05 05:49 | 28.33323 | -80.61510 | 32430 ft | 433 kts | 168° |
| 2026-05-05 05:49 | 28.30512 | -80.60375 | 31911 ft | 426 kts | 168° |
| 2026-05-05 05:50 | 28.27735 | -80.59255 | 31352 ft | 422 kts | 168° |
| 2026-05-05 05:50 | 28.24970 | -80.58142 | 30797 ft | 422 kts | 168° |
| 2026-05-05 05:50 | 28.22198 | -80.57023 | 30242 ft | 425 kts | 168° |
| 2026-05-05 05:50 | 28.19401 | -80.55897 | 29622 ft | 427 kts | 168° |
| 2026-05-05 05:51 | 28.16569 | -80.54758 | 29051 ft | 439 kts | 167° |
| 2026-05-05 05:51 | 28.13653 | -80.53587 | 28464 ft | 452 kts | 167° |
| 2026-05-05 05:51 | 28.10654 | -80.52375 | 27855 ft | 461 kts | 167° |
| 2026-05-05 05:51 | 28.07616 | -80.51145 | 27239 ft | 463 kts | 167° |
| 2026-05-05 05:52 | 28.04593 | -80.49927 | 26625 ft | 459 kts | 166° |
| 2026-05-05 05:52 | 28.01603 | -80.48728 | 26016 ft | 453 kts | 167° |
| 2026-05-05 05:52 | 27.98647 | -80.47544 | 25425 ft | 450 kts | 166° |
| 2026-05-05 05:52 | 27.95707 | -80.46363 | 24832 ft | 446 kts | 166° |
| 2026-05-05 05:53 | 27.92800 | -80.45195 | 24254 ft | 440 kts | 166° |
| 2026-05-05 05:53 | 27.89933 | -80.44045 | 23683 ft | 433 kts | 166° |
| 2026-05-05 05:53 | 27.87127 | -80.42919 | 23066 ft | 424 kts | 166° |
| 2026-05-05 05:53 | 27.84382 | -80.41816 | 22521 ft | 414 kts | 166° |
| 2026-05-05 05:54 | 27.81695 | -80.40739 | 21984 ft | 405 kts | 166° |
| 2026-05-05 05:54 | 27.79062 | -80.39686 | 21467 ft | 399 kts | 166° |
| 2026-05-05 05:54 | 27.76462 | -80.38646 | 20942 ft | 394 kts | 166° |
| 2026-05-05 05:54 | 27.73891 | -80.37617 | 20433 ft | 390 kts | 166° |
| 2026-05-05 05:55 | 27.71344 | -80.36598 | 19917 ft | 387 kts | 166° |
| 2026-05-05 05:55 | 27.68818 | -80.35588 | 19414 ft | 383 kts | 166° |
| 2026-05-05 05:55 | 27.66318 | -80.34575 | 18908 ft | 381 kts | 164° |
| 2026-05-05 05:55 | 27.63935 | -80.33337 | 18390 ft | 382 kts | 159° |
| 2026-05-05 05:56 | 27.61542 | -80.32055 | 17835 ft | 379 kts | 159° |
| 2026-05-05 05:56 | 27.59168 | -80.30808 | 17320 ft | 374 kts | 159° |
| 2026-05-05 05:56 | 27.56826 | -80.29580 | 16840 ft | 369 kts | 159° |
| 2026-05-05 05:56 | 27.54514 | -80.28358 | 16356 ft | 365 kts | 159° |
| 2026-05-05 05:57 | 27.52225 | -80.27147 | 15877 ft | 361 kts | 159° |
| 2026-05-05 05:57 | 27.49965 | -80.25956 | 15404 ft | 357 kts | 159° |
| 2026-05-05 05:57 | 27.47722 | -80.24775 | 14935 ft | 354 kts | 158° |
| 2026-05-05 05:57 | 27.45502 | -80.23605 | 14473 ft | 351 kts | 158° |
| 2026-05-05 05:58 | 27.43296 | -80.22444 | 14008 ft | 348 kts | 158° |
| 2026-05-05 05:58 | 27.41113 | -80.21294 | 13503 ft | 345 kts | 158° |
| 2026-05-05 05:58 | 27.38947 | -80.20154 | 13049 ft | 341 kts | 158° |
| 2026-05-05 05:58 | 27.36814 | -80.19033 | 12603 ft | 337 kts | 158° |
| 2026-05-05 05:59 | 27.34699 | -80.17921 | 12161 ft | 334 kts | 158° |
| 2026-05-05 05:59 | 27.32607 | -80.16822 | 11724 ft | 331 kts | 158° |
| 2026-05-05 05:59 | 27.30537 | -80.15734 | 11289 ft | 323 kts | 158° |
| 2026-05-05 05:59 | 27.28550 | -80.14689 | 10873 ft | 309 kts | 158° |
| 2026-05-05 06:00 | 27.26622 | -80.13679 | 10470 ft | 302 kts | 158° |
| 2026-05-05 06:00 | 27.24721 | -80.12750 | 10077 ft | 294 kts | 162° |
| 2026-05-05 06:00 | 27.22858 | -80.11859 | 9678 ft | 289 kts | 159° |
| 2026-05-05 06:00 | 27.21044 | -80.10932 | 9296 ft | 284 kts | 159° |
| 2026-05-05 06:01 | 27.19249 | -80.10051 | 8929 ft | 279 kts | 160° |
| 2026-05-05 06:01 | 27.17468 | -80.09204 | 8561 ft | 277 kts | 160° |
| 2026-05-05 06:01 | 27.15702 | -80.08353 | 8198 ft | 275 kts | 160° |
| 2026-05-05 06:01 | 27.13953 | -80.07501 | 7837 ft | 273 kts | 159° |
| 2026-05-05 06:02 | 27.12215 | -80.06652 | 7482 ft | 272 kts | 159° |
| 2026-05-05 06:02 | 27.10510 | -80.05803 | 7126 ft | 271 kts | 158° |
| 2026-05-05 06:02 | 27.08791 | -80.04946 | 6775 ft | 270 kts | 158° |
| 2026-05-05 06:02 | 27.07072 | -80.04095 | 6415 ft | 270 kts | 158° |
| 2026-05-05 06:03 | 27.05356 | -80.03249 | 6052 ft | 269 kts | 158° |
| 2026-05-05 06:03 | 27.03651 | -80.02407 | 5702 ft | 267 kts | 158° |
| 2026-05-05 06:03 | 27.01955 | -80.01568 | 5342 ft | 265 kts | 156° |
| 2026-05-05 06:03 | 27.00278 | -80.00740 | 5000 ft | 262 kts | 156° |
| 2026-05-05 06:04 | 26.98614 | -79.99919 | 4647 ft | 260 kts | 155° |
| 2026-05-05 06:04 | 26.96961 | -79.99129 | 4287 ft | 257 kts | 158° |
| 2026-05-05 06:04 | 26.95194 | -79.98955 | 3933 ft | 256 kts | 188° |
| 2026-05-05 06:04 | 26.93594 | -79.99660 | 3974 ft | 246 kts | 210° |
| 2026-05-05 06:05 | 26.92245 | -80.00814 | 4020 ft | 244 kts | 214° |
| 2026-05-05 06:05 | 26.90877 | -80.01988 | 4018 ft | 249 kts | 214° |
| 2026-05-05 06:05 | 26.89491 | -80.03173 | 4017 ft | 252 kts | 215° |
| 2026-05-05 06:05 | 26.88090 | -80.04376 | 4017 ft | 257 kts | 215° |
| 2026-05-05 06:06 | 26.86646 | -80.05614 | 4020 ft | 262 kts | 214° |
| 2026-05-05 06:06 | 26.85204 | -80.06865 | 4006 ft | 260 kts | 215° |
| 2026-05-05 06:06 | 26.83781 | -80.08085 | 4003 ft | 257 kts | 215° |
| 2026-05-05 06:06 | 26.82374 | -80.09310 | 4002 ft | 258 kts | 216° |
| 2026-05-05 06:07 | 26.81040 | -80.10596 | 3965 ft | 251 kts | 226° |
| 2026-05-05 06:07 | 26.80310 | -80.12326 | 3983 ft | 243 kts | 252° |
| 2026-05-05 06:07 | 26.79906 | -80.14159 | 4008 ft | 240 kts | 256° |
| 2026-05-05 06:07 | 26.79529 | -80.15934 | 4008 ft | 231 kts | 255° |
| 2026-05-05 06:08 | 26.79140 | -80.17671 | 3999 ft | 228 kts | 254° |
| 2026-05-05 06:08 | 26.78754 | -80.19376 | 3969 ft | 226 kts | 255° |
| 2026-05-05 06:08 | 26.78374 | -80.21093 | 3840 ft | 229 kts | 255° |
| 2026-05-05 06:08 | 26.77988 | -80.22855 | 3686 ft | 234 kts | 254° |
| 2026-05-05 06:09 | 26.77315 | -80.24503 | 3442 ft | 235 kts | 233° |
| 2026-05-05 06:09 | 26.76177 | -80.25781 | 3235 ft | 228 kts | 213° |
| 2026-05-05 06:09 | 26.75270 | -80.26338 | 3095 ft | 224 kts | 199° |
| 2026-05-05 06:09 | 26.73829 | -80.26724 | 2908 ft | 210 kts | 181° |
| 2026-05-05 06:10 | 26.72381 | -80.26597 | 2737 ft | 207 kts | 163° |
| 2026-05-05 06:10 | 26.71061 | -80.25994 | 2543 ft | 204 kts | 146° |
| 2026-05-05 06:10 | 26.69989 | -80.25006 | 2367 ft | 198 kts | 130° |
| 2026-05-05 06:10 | 26.69068 | -80.23285 | 2148 ft | 192 kts | 109° |
| 2026-05-05 06:11 | 26.68853 | -80.22361 | 2051 ft | 171 kts | 99° |
| 2026-05-05 06:11 | 26.68776 | -80.21121 | 1851 ft | 150 kts | 92° |
| 2026-05-05 06:11 | 26.68726 | -80.20016 | 1656 ft | 135 kts | 93° |
| 2026-05-05 06:11 | 26.68679 | -80.19008 | 1487 ft | 125 kts | 92° |
| 2026-05-05 06:12 | 26.68634 | -80.18057 | 1327 ft | 120 kts | 92° |
| 2026-05-05 06:12 | 26.68583 | -80.17123 | 1166 ft | 120 kts | 92° |
| 2026-05-05 06:12 | 26.68545 | -80.16196 | 984 ft | 118 kts | 91° |
| 2026-05-05 06:12 | 26.68518 | -80.15305 | 850 ft | 113 kts | 91° |
| 2026-05-05 06:13 | 26.68488 | -80.14437 | 712 ft | 112 kts | 95° |
| 2026-05-05 06:13 | 26.68438 | -80.13546 | 552 ft | 119 kts | 91° |
| 2026-05-05 06:13 | 26.68398 | -80.12619 | 384 ft | 119 kts | 89° |
| 2026-05-05 06:13 | 26.68359 | -80.11716 | 243 ft | 114 kts | 91° |
| 2026-05-05 06:14 | 26.68322 | -80.10836 | 110 ft | 113 kts | 90° |
| 2026-05-05 06:14 | 26.68283 | -80.09970 | 22 ft | 106 kts | 90° |
| 2026-05-05 06:14 | 26.68257 | -80.09308 | 18 ft | 56 kts | 92° |
| 2026-05-05 06:14 | 26.68246 | -80.09054 | 18 ft | 21 kts | 92° |
| 2026-05-05 06:15 | 26.68239 | -80.08906 | 18 ft | 14 kts | 94° |
| 2026-05-05 06:15 | 26.68221 | -80.08861 | 18 ft | 4 kts | 154° |
| 2026-05-05 06:15 | 26.68193 | -80.08874 | 18 ft | 8 kts | 226° |
| 2026-05-05 06:15 | 26.68138 | -80.08935 | 18 ft | 13 kts | 224° |
| 2026-05-05 06:16 | 26.68076 | -80.09003 | 18 ft | 12 kts | 225° |
| 2026-05-05 06:16 | 26.68018 | -80.09069 | 18 ft | 12 kts | 225° |
| 2026-05-05 06:16 | 26.67963 | -80.09133 | 19 ft | 9 kts | 225° |
| 2026-05-05 06:16 | 26.67926 | -80.09178 | 19 ft | 6 kts | 251° |
| 2026-05-05 06:17 | 26.67945 | -80.09212 | 18 ft | 5 kts | 314° |
| 2026-05-05 06:17 | 26.67970 | -80.09241 | 19 ft | 5 kts | 313° |
| 2026-05-05 06:17 | 26.67999 | -80.09277 | 19 ft | 7 kts | 307° |
| 2026-05-05 06:17 | 26.68022 | -80.09321 | 20 ft | 6 kts | 282° |
| 2026-05-05 06:18 | 26.68023 | -80.09370 | 18 ft | 6 kts | 271° |
| 2026-05-05 06:18 | 26.68023 | -80.09419 | 20 ft | 6 kts | 271° |
| 2026-05-05 06:18 | 26.68024 | -80.09462 | 19 ft | 6 kts | 272° |
| 2026-05-05 06:18 | 26.68027 | -80.09532 | 18 ft | 11 kts | 274° |
| 2026-05-05 06:19 | 26.68022 | -80.09546 | 19 ft | 2 kts | 218° |
| 2026-05-05 06:19 | 26.67995 | -80.09546 | 19 ft | 4 kts | 175° |
| 2026-05-05 06:19 | 26.67967 | -80.09540 | 18 ft | 4 kts | 145° |
| 2026-05-05 06:19 | 26.67951 | -80.09515 | 19 ft | 5 kts | 114° |
| 2026-05-05 06:20 | 26.67950 | -80.09505 | 18 ft | 0 kts | 93° |